Time;durP1;ratioP1;P1;durP2;ratioP2;P2;SDS_P1;SDS_P2;PMS_P1;PMS_P2;Temp;Humidity;BMP_temperature;BMP_pressure;BME280_temperature;BME280_humidity;BME280_pressure;Samples;Min_cycle;Max_cycle;Signal;HPM_P1;HPM_P2
2023/06/23 00:00:28;;;;;;;2.78;1.58;;;19.80;98.00;;;;;;5069926;28;20032;-72
2023/06/23 00:02:54;;;;;;;2.22;1.73;;;19.80;97.90;;;;;;5083065;28;20044;-74
2023/06/23 00:05:19;;;;;;;1.23;1.13;;;19.70;97.70;;;;;;5081884;28;20031;-74
2023/06/23 00:07:45;;;;;;;1.52;1.35;;;19.60;97.60;;;;;;5082112;28;20036;-74
2023/06/23 00:10:12;;;;;;;1.30;1.20;;;19.60;97.50;;;;;;5082587;28;20032;-74
2023/06/23 00:12:42;;;;;;;1.58;1.35;;;19.60;97.50;;;;;;5082904;28;20048;-74
2023/06/23 00:15:10;;;;;;;3.63;1.27;;;19.50;97.60;;;;;;5081832;28;20028;-74
2023/06/23 00:17:39;;;;;;;1.88;1.20;;;19.50;97.50;;;;;;5082772;28;20040;-74
2023/06/23 00:20:10;;;;;;;4.40;1.30;;;19.50;97.50;;;;;;5082245;28;20036;-74
2023/06/23 00:22:36;;;;;;;1.67;1.45;;;19.40;97.50;;;;;;5073220;28;20044;-75
2023/06/23 00:25:03;;;;;;;1.60;1.27;;;19.40;97.50;;;;;;5062870;28;20009;-74
2023/06/23 00:27:29;;;;;;;3.83;1.50;;;19.30;97.40;;;;;;5062847;28;20073;-74
2023/06/23 00:29:54;;;;;;;3.78;1.42;;;19.30;97.40;;;;;;5065203;28;20104;-74
2023/06/23 00:32:20;;;;;;;1.45;1.35;;;19.30;97.10;;;;;;5060787;28;20057;-74
2023/06/23 00:34:46;;;;;;;2.22;1.25;;;19.20;97.20;;;;;;5053577;28;20025;-73
2023/06/23 00:37:11;;;;;;;4.22;1.13;;;19.20;97.20;;;;;;5054293;28;20017;-74
2023/06/23 00:39:37;;;;;;;1.08;0.90;;;19.20;97.30;;;;;;5055532;28;20199;-75
2023/06/23 00:42:05;;;;;;;2.83;1.15;;;19.20;97.30;;;;;;5041148;28;20032;-74
2023/06/23 00:44:33;;;;;;;2.42;1.13;;;19.20;97.20;;;;;;5039474;28;20628;-74
2023/06/23 00:46:59;;;;;;;1.08;1.00;;;19.10;97.10;;;;;;5057702;28;20028;-74
2023/06/23 00:49:25;;;;;;;1.40;1.30;;;19.10;97.00;;;;;;5058157;28;20033;-74
2023/06/23 00:51:53;;;;;;;1.08;1.05;;;19.10;96.90;;;;;;5074344;28;20025;-74
2023/06/23 00:54:19;;;;;;;1.60;0.98;;;19.20;97.00;;;;;;5077446;28;20037;-74
2023/06/23 00:56:44;;;;;;;1.58;0.80;;;19.20;96.70;;;;;;5077077;28;20029;-73
2023/06/23 00:59:10;;;;;;;0.93;0.93;;;19.30;96.60;;;;;;5066039;28;20470;-75
2023/06/23 01:01:36;;;;;;;1.30;1.20;;;19.30;96.40;;;;;;5058210;28;20025;-74
2023/06/23 01:04:02;;;;;;;1.27;1.17;;;19.20;96.20;;;;;;5057140;28;20119;-73
2023/06/23 01:06:39;;;;;;;1.60;1.08;;;19.20;96.10;;;;;;5039904;28;20025;-74
2023/06/23 01:09:31;;;;;;;1.52;1.13;;;19.20;96.00;;;;;;5057936;28;20548;-74
2023/06/23 01:12:37;;;;;;;1.42;1.30;;;19.10;95.90;;;;;;5059276;28;20028;-74
2023/06/23 01:15:17;;;;;;;1.38;1.25;;;19.10;95.90;;;;;;5075397;28;20128;-73
2023/06/23 01:17:46;;;;;;;1.08;1.00;;;;;;;;;;5059333;28;20020;-73
2023/06/23 01:20:24;;;;;;;1.55;1.27;;;19.10;95.60;;;;;;5077342;28;20458;-73
2023/06/23 01:23:20;;;;;;;1.33;1.23;;;19.10;95.90;;;;;;5075511;28;20098;-75
2023/06/23 01:26:07;;;;;;;1.17;1.10;;;19.10;95.80;;;;;;5059007;28;20437;-74
2023/06/23 01:28:44;;;;;;;1.75;1.27;;;19.00;95.60;;;;;;5051162;28;20024;-74
2023/06/23 01:31:14;;;;;;;1.70;1.40;;;19.00;95.60;;;;;;5045118;28;20032;-74
2023/06/23 01:33:51;;;;;;;3.20;1.70;;;19.00;95.40;;;;;;5058479;28;20063;-74
2023/06/23 01:36:25;;;;;;;4.10;1.48;;;18.90;95.40;;;;;;5038910;28;20079;-75
2023/06/23 01:38:55;;;;;;;2.33;1.30;;;18.90;95.60;;;;;;5056922;28;20476;-75
2023/06/23 01:41:26;;;;;;;2.40;1.23;;;18.90;95.80;;;;;;5057630;28;20490;-74
2023/06/23 01:43:55;;;;;;;1.67;1.20;;;18.90;95.90;;;;;;5074508;28;20408;-74
2023/06/23 01:46:25;;;;;;;1.50;1.38;;;19.00;95.90;;;;;;5058769;28;20472;-74
2023/06/23 01:48:57;;;;;;;1.10;1.00;;;19.00;95.70;;;;;;5077368;28;20024;-74
2023/06/23 01:51:26;;;;;;;1.58;1.40;;;19.00;95.60;;;;;;5077077;28;20025;-75
2023/06/23 01:53:53;;;;;;;1.25;1.15;;;19.00;95.60;;;;;;5076233;28;20044;-76
2023/06/23 01:56:21;;;;;;;1.95;1.20;;;18.90;95.60;;;;;;5079199;28;20537;-74
2023/06/23 01:58:48;;;;;;;1.05;0.90;;;18.90;95.70;;;;;;5073877;28;20056;-75
2023/06/23 02:01:15;;;;;;;1.00;1.00;;;18.90;95.70;;;;;;5080806;28;20036;-73
2023/06/23 02:03:41;;;;;;;1.80;1.70;;;19.00;95.70;;;;;;5078055;28;20071;-74
2023/06/23 02:06:08;;;;;;;1.27;1.17;;;19.00;95.30;;;;;;5059418;28;20024;-74
2023/06/23 02:08:36;;;;;;;1.90;1.15;;;18.90;95.30;;;;;;5057457;28;20021;-74
2023/06/23 02:11:02;;;;;;;1.25;1.00;;;19.00;95.30;;;;;;5074135;28;20056;-74
2023/06/23 02:13:30;;;;;;;1.40;1.20;;;18.90;95.30;;;;;;5081445;28;20021;-73
2023/06/23 02:15:57;;;;;;;1.20;1.10;;;18.90;95.20;;;;;;5060665;28;20115;-74
2023/06/23 02:18:24;;;;;;;1.90;1.33;;;18.80;95.20;;;;;;5078502;28;20103;-74
2023/06/23 02:20:51;;;;;;;1.50;1.40;;;18.80;95.30;;;;;;5068067;28;20056;-74
2023/06/23 02:23:19;;;;;;;1.42;1.23;;;18.80;95.10;;;;;;5057124;28;20031;-74
2023/06/23 02:25:45;;;;;;;1.23;1.08;;;18.80;95.20;;;;;;5055532;28;20107;-73
2023/06/23 02:28:12;;;;;;;0.93;0.93;;;18.80;95.30;;;;;;5059832;28;20050;-74
2023/06/23 02:30:40;;;;;;;1.38;1.08;;;18.90;95.40;;;;;;5045699;28;20389;-73
2023/06/23 02:33:06;;;;;;;2.35;1.40;;;18.90;95.40;;;;;;5057429;28;20059;-73
2023/06/23 02:35:33;;;;;;;1.40;1.20;;;19.00;95.20;;;;;;5038035;28;20501;-73
2023/06/23 02:38:01;;;;;;;1.75;1.60;;;19.00;95.00;;;;;;5057245;28;20446;-73
2023/06/23 02:40:29;;;;;;;1.40;1.20;;;19.00;94.90;;;;;;5057642;28;20032;-73
2023/06/23 02:43:10;;;;;;;3.03;1.27;;;18.90;94.90;;;;;;5058797;28;20037;-73
2023/06/23 02:45:40;;;;;;;1.48;1.20;;;18.90;95.00;;;;;;5075517;28;20047;-74
2023/06/23 02:48:13;;;;;;;2.00;1.42;;;18.90;94.90;;;;;;5075937;28;20358;-74
2023/06/23 02:50:39;;;;;;;1.50;1.40;;;18.80;95.00;;;;;;5073831;28;20025;-74
2023/06/23 02:53:12;;;;;;;1.70;1.60;;;18.80;95.00;;;;;;5054719;28;20462;-74
2023/06/23 02:55:45;;;;;;;3.83;1.98;;;18.90;94.90;;;;;;5062762;28;20024;-73
2023/06/23 02:58:14;;;;;;;2.83;1.50;;;18.80;94.90;;;;;;5074805;28;20024;-74
2023/06/23 03:00:40;;;;;;;1.40;1.20;;;18.80;95.00;;;;;;5066551;28;20112;-74
2023/06/23 03:03:12;;;;;;;2.20;1.65;;;18.80;95.10;;;;;;5073629;28;20047;-75
2023/06/23 03:05:38;;;;;;;1.77;1.42;;;18.80;95.10;;;;;;5075109;28;20384;-75
2023/06/23 03:08:05;;;;;;;2.47;1.50;;;18.80;95.20;;;;;;5075332;28;20060;-75
2023/06/23 03:10:31;;;;;;;2.55;1.73;;;18.80;95.30;;;;;;5075991;28;20439;-75
2023/06/23 03:12:59;;;;;;;1.60;1.45;;;18.80;95.10;;;;;;5060305;28;20111;-74
2023/06/23 03:15:25;;;;;;;1.45;1.20;;;18.90;95.10;;;;;;5054765;28;20392;-74
2023/06/23 03:17:58;;;;;;;1.85;1.75;;;18.80;95.20;;;;;;5054731;28;20121;-74
2023/06/23 03:20:29;;;;;;;1.35;1.25;;;18.90;95.30;;;;;;5055451;28;20029;-74
2023/06/23 03:23:04;;;;;;;1.95;1.65;;;18.90;95.20;;;;;;5067321;28;20036;-74
2023/06/23 03:25:30;;;;;;;1.30;1.20;;;18.90;95.30;;;;;;5075381;28;20641;-74
2023/06/23 03:27:59;;;;;;;1.40;1.30;;;18.80;95.40;;;;;;5074757;28;20032;-74
2023/06/23 03:30:33;;;;;;;1.67;1.48;;;18.80;95.50;;;;;;5067806;28;20042;-74
2023/06/23 03:33:03;;;;;;;1.83;1.23;;;18.80;95.50;;;;;;5039927;28;20027;-76
2023/06/23 03:35:37;;;;;;;1.55;1.38;;;18.80;95.60;;;;;;5058710;28;20474;-75
2023/06/23 03:38:04;;;;;;;1.92;1.70;;;18.80;95.80;;;;;;5054220;28;20088;-75
2023/06/23 03:40:38;;;;;;;2.55;1.70;;;18.80;95.90;;;;;;5074435;28;20029;-74
2023/06/23 03:43:19;;;;;;;1.58;1.48;;;18.80;95.90;;;;;;5074864;28;20474;-75
2023/06/23 03:45:47;;;;;;;4.33;1.70;;;18.80;95.90;;;;;;5077343;28;20490;-76
2023/06/23 03:48:14;;;;;;;1.63;1.20;;;18.90;95.80;;;;;;5075024;28;20048;-76
2023/06/23 03:50:43;;;;;;;1.77;1.25;;;18.90;95.80;;;;;;5075444;28;20050;-76
2023/06/23 03:53:10;;;;;;;1.30;1.20;;;18.90;95.90;;;;;;5075393;28;20048;-74
2023/06/23 03:55:38;;;;;;;1.52;0.93;;;19.00;96.00;;;;;;5074983;28;20025;-77
2023/06/23 03:58:07;;;;;;;1.15;1.05;;;19.00;96.00;;;;;;5084866;28;20043;-78
2023/06/23 04:00:36;;;;;;;1.48;1.10;;;19.00;96.20;;;;;;5071458;28;20036;-76
2023/06/23 04:03:06;;;;;;;2.28;1.25;;;19.20;96.30;;;;;;5055605;28;20428;-76
2023/06/23 04:05:33;;;;;;;0.80;0.80;;;19.30;95.90;;;;;;5038666;28;20398;-76
2023/06/23 04:08:02;;;;;;;0.93;0.93;;;19.40;95.80;;;;;;5057692;28;20050;-76
2023/06/23 04:10:29;;;;;;;1.40;1.00;;;19.40;95.50;;;;;;5073947;28;20080;-76
2023/06/23 04:12:56;;;;;;;0.95;0.95;;;19.50;95.40;;;;;;5054597;28;20481;-76
2023/06/23 04:15:24;;;;;;;0.82;0.82;;;19.50;95.30;;;;;;5044740;28;20474;-76
2023/06/23 04:17:52;;;;;;;0.63;0.60;;;19.70;95.20;;;;;;5057214;28;20042;-76
2023/06/23 04:20:19;;;;;;;1.38;0.73;;;19.80;95.00;;;;;;5075196;28;20041;-76
2023/06/23 04:22:46;;;;;;;1.17;0.80;;;19.90;94.80;;;;;;5075191;28;20074;-77
2023/06/23 04:25:13;;;;;;;1.20;0.88;;;20.00;94.50;;;;;;5073519;28;20024;-76
2023/06/23 04:27:43;;;;;;;0.95;0.80;;;20.00;94.40;;;;;;5048877;28;20492;-77
2023/06/23 04:30:11;;;;;;;0.80;0.80;;;20.00;94.40;;;;;;5061998;28;20074;-77
2023/06/23 04:32:40;;;;;;;0.82;0.82;;;20.10;94.40;;;;;;5056828;28;20543;-77
2023/06/23 04:35:06;;;;;;;1.08;0.80;;;20.00;94.60;;;;;;5055344;28;20039;-77
2023/06/23 04:37:56;;;;;;;0.68;0.68;;;19.90;95.00;;;;;;5074347;28;20025;-77
2023/06/23 04:40:45;;;;;;;3.20;0.80;;;19.70;95.30;;;;;;5075431;28;20368;-76
2023/06/23 04:43:17;;;;;;;0.60;0.60;;;19.60;95.70;;;;;;5056984;28;20033;-76
2023/06/23 04:46:01;;;;;;;;;;;19.50;96.00;;;;;;5075169;28;20093;-77
2023/06/23 04:48:32;;;;;;;2.13;0.80;;;19.50;96.20;;;;;;5074347;28;20376;-78
2023/06/23 04:50:59;;;;;;;0.80;0.80;;;19.40;97.00;;;;;;5075252;28;20063;-74
2023/06/23 04:53:38;;;;;;;1.95;0.95;;;19.30;97.50;;;;;;5051542;28;20075;-75
2023/06/23 04:56:04;;;;;;;0.50;0.50;;;;;;;;;;5055338;28;20040;-76
2023/06/23 04:58:35;;;;;;;0.73;0.68;;;19.10;98.50;;;;;;5043622;28;20405;-77
2023/06/23 05:01:03;;;;;;;0.60;0.60;;;18.80;99.40;;;;;;5062686;28;20017;-76
2023/06/23 05:03:31;;;;;;;0.70;0.70;;;18.50;99.90;;;;;;5054359;28;20021;-77
2023/06/23 05:05:57;;;;;;;0.55;0.50;;;18.30;99.90;;;;;;5053809;28;20501;-77
2023/06/23 05:08:28;;;;;;;0.70;0.70;;;18.20;99.90;;;;;;5046516;28;20017;-77
2023/06/23 05:10:59;;;;;;;0.50;0.50;;;18.10;99.90;;;;;;5037155;28;20017;-77
2023/06/23 05:13:28;;;;;;;0.57;0.57;;;18.10;99.90;;;;;;5055635;28;20055;-77
2023/06/23 05:15:54;;;;;;;0.45;0.45;;;18.10;99.90;;;;;;5069031;28;20071;-76
2023/06/23 05:18:23;;;;;;;1.98;0.60;;;18.10;99.90;;;;;;5055905;28;20025;-76
2023/06/23 05:20:51;;;;;;;0.82;0.73;;;18.00;99.90;;;;;;5036505;28;20021;-77
2023/06/23 05:23:18;;;;;;;0.60;0.60;;;17.90;99.90;;;;;;5038050;28;20029;-77
2023/06/23 05:25:47;;;;;;;0.35;0.35;;;17.80;99.90;;;;;;5055140;28;20028;-75
2023/06/23 05:28:16;;;;;;;0.40;0.40;;;17.80;99.90;;;;;;5042212;28;20021;-76
2023/06/23 05:30:43;;;;;;;0.75;0.68;;;17.70;99.90;;;;;;5058612;28;20013;-76
2023/06/23 05:33:10;;;;;;;0.38;0.38;;;17.70;99.90;;;;;;5069075;28;20075;-76
2023/06/23 05:35:39;;;;;;;0.90;0.63;;;17.60;99.90;;;;;;5056696;28;20070;-76
2023/06/23 05:38:06;;;;;;;0.95;0.60;;;17.70;99.90;;;;;;5067042;28;20424;-75
2023/06/23 05:40:32;;;;;;;0.45;0.45;;;17.60;99.90;;;;;;5060107;28;20036;-75
2023/06/23 05:42:58;;;;;;;0.45;0.30;;;17.60;99.90;;;;;;5077335;28;20036;-75
2023/06/23 05:45:24;;;;;;;0.60;0.60;;;17.50;99.90;;;;;;5075158;28;20048;-75
2023/06/23 05:48:28;;;;;;;1.65;0.50;;;17.50;99.90;;;;;;5057880;28;20381;-76
2023/06/23 05:51:00;;;;;;;0.65;0.50;;;17.50;99.90;;;;;;5058033;28;20037;-76
2023/06/23 05:53:29;;;;;;;0.65;0.65;;;17.40;99.90;;;;;;5062857;28;20036;-76
2023/06/23 05:56:00;;;;;;;0.80;0.70;;;;;;;;;;5084125;28;20112;-76
2023/06/23 05:58:31;;;;;;;2.47;0.70;;;17.30;99.90;;;;;;5069297;28;20453;-76
2023/06/23 06:00:59;;;;;;;0.65;0.65;;;17.30;99.90;;;;;;5076413;28;20024;-75
2023/06/23 06:03:36;;;;;;;1.08;0.70;;;17.20;99.90;;;;;;5059014;28;20044;-77
2023/06/23 06:06:04;;;;;;;0.73;0.73;;;17.20;99.90;;;;;;5046567;28;20028;-76
2023/06/23 06:08:32;;;;;;;1.05;0.80;;;17.30;99.90;;;;;;5064473;28;20040;-76
2023/06/23 06:10:58;;;;;;;1.17;1.00;;;17.40;99.90;;;;;;5060539;28;20033;-75
2023/06/23 06:13:25;;;;;;;3.75;1.35;;;17.40;99.90;;;;;;5062503;28;20025;-79
2023/06/23 06:15:53;;;;;;;2.92;2.08;;;17.40;99.90;;;;;;5054702;28;20064;-76
2023/06/23 06:18:20;;;;;;;1.50;1.40;;;17.30;99.90;;;;;;5055795;28;20082;-76
2023/06/23 06:20:47;;;;;;;1.10;1.00;;;17.40;99.90;;;;;;5057478;28;20029;-76
2023/06/23 06:23:15;;;;;;;1.10;1.10;;;17.50;99.90;;;;;;5057793;28;20033;-76
2023/06/23 06:25:43;;;;;;;1.30;1.10;;;17.60;99.90;;;;;;5056937;28;20020;-76
2023/06/23 06:28:13;;;;;;;2.17;1.60;;;17.80;99.90;;;;;;5039509;28;20040;-75
2023/06/23 06:30:41;;;;;;;1.75;1.65;;;17.80;99.90;;;;;;5047308;28;20033;-75
2023/06/23 06:33:09;;;;;;;1.75;1.60;;;17.90;99.90;;;;;;5056648;28;20025;-75
2023/06/23 06:35:36;;;;;;;2.30;2.10;;;18.00;99.90;;;;;;5055563;28;20043;-75
2023/06/23 06:38:05;;;;;;;2.15;2.05;;;18.00;99.90;;;;;;5054957;28;20474;-76
2023/06/23 06:40:32;;;;;;;2.13;1.60;;;17.90;99.90;;;;;;5063273;28;20052;-76
2023/06/23 06:42:58;;;;;;;3.03;2.42;;;17.90;99.90;;;;;;5077163;28;20076;-76
2023/06/23 06:45:24;;;;;;;3.25;2.67;;;17.90;99.90;;;;;;5071904;28;20059;-76
2023/06/23 06:47:51;;;;;;;3.50;3.15;;;17.90;99.90;;;;;;5056569;28;20029;-76
2023/06/23 06:50:18;;;;;;;3.65;3.25;;;17.90;99.90;;;;;;5057745;28;20144;-76
2023/06/23 06:52:45;;;;;;;3.22;2.92;;;17.90;99.90;;;;;;5057161;28;20025;-77
2023/06/23 06:55:18;;;;;;;4.07;3.47;;;17.90;99.90;;;;;;5058507;28;20056;-76
2023/06/23 06:57:48;;;;;;;6.00;4.03;;;17.90;99.90;;;;;;5067919;28;20029;-75
2023/06/23 07:00:18;;;;;;;3.70;3.40;;;17.80;99.90;;;;;;5067128;28;20075;-76
2023/06/23 07:02:45;;;;;;;5.15;4.00;;;17.80;99.90;;;;;;5062859;28;20025;-76
2023/06/23 07:05:11;;;;;;;4.68;3.60;;;17.80;99.90;;;;;;5056999;28;20029;-76
2023/06/23 07:07:36;;;;;;;6.07;4.10;;;17.90;99.90;;;;;;5073756;28;20099;-76
2023/06/23 07:10:03;;;;;;;4.72;3.95;;;17.90;99.90;;;;;;5044527;28;20028;-77
2023/06/23 07:12:31;;;;;;;4.22;3.83;;;18.10;99.90;;;;;;5065328;28;20039;-76
2023/06/23 07:14:56;;;;;;;4.45;4.03;;;18.20;99.90;;;;;;5068481;28;20382;-75
2023/06/23 07:17:22;;;;;;;4.80;3.70;;;18.30;99.90;;;;;;5059083;28;20024;-76
2023/06/23 07:19:48;;;;;;;4.05;3.67;;;18.30;99.90;;;;;;5075077;28;20035;-77
2023/06/23 07:22:13;;;;;;;4.18;3.70;;;18.20;99.90;;;;;;5075492;28;20059;-76
2023/06/23 07:24:39;;;;;;;4.25;3.85;;;;;;;;;;5057491;28;20551;-76
2023/06/23 07:27:06;;;;;;;5.43;4.63;;;18.40;99.90;;;;;;5058508;28;20029;-77
2023/06/23 07:29:32;;;;;;;5.70;4.90;;;18.60;99.90;;;;;;5049539;28;20071;-75
2023/06/23 07:31:58;;;;;;;5.05;4.55;;;18.90;99.90;;;;;;5076178;28;20029;-76
2023/06/23 07:34:23;;;;;;;6.85;4.88;;;19.20;99.90;;;;;;5057400;28;20040;-76
2023/06/23 07:36:49;;;;;;;6.60;4.75;;;19.50;99.90;;;;;;5064222;28;20024;-76
2023/06/23 07:39:15;;;;;;;4.28;3.88;;;19.60;99.90;;;;;;5071896;28;20150;-75
2023/06/23 07:41:40;;;;;;;4.13;2.92;;;19.60;99.90;;;;;;5061498;28;20047;-76
2023/06/23 07:44:06;;;;;;;4.30;3.45;;;19.70;99.90;;;;;;5055557;28;20021;-76
2023/06/23 07:46:34;;;;;;;5.18;4.20;;;19.90;99.60;;;;;;5056481;28;20029;-76
2023/06/23 07:48:59;;;;;;;5.05;4.18;;;20.10;98.00;;;;;;5059525;28;20036;-75
2023/06/23 07:51:26;;;;;;;5.55;4.55;;;20.20;97.90;;;;;;5079113;28;20028;-76
2023/06/23 07:53:52;;;;;;;5.35;4.05;;;20.40;96.80;;;;;;5092599;28;20425;-76
2023/06/23 07:56:18;;;;;;;5.18;4.15;;;20.50;96.60;;;;;;5074591;28;20035;-76
2023/06/23 07:58:43;;;;;;;5.10;4.55;;;20.70;96.30;;;;;;5068097;28;20068;-76
2023/06/23 08:01:10;;;;;;;6.30;4.07;;;20.60;95.80;;;;;;5076840;28;20330;-76
2023/06/23 08:03:36;;;;;;;5.13;3.72;;;20.60;96.10;;;;;;5054452;28;20029;-76
2023/06/23 08:06:01;;;;;;;4.38;3.78;;;20.50;96.20;;;;;;5067445;28;20037;-76
2023/06/23 08:08:27;;;;;;;4.13;3.72;;;20.60;95.90;;;;;;5064257;28;20025;-75
2023/06/23 08:10:53;;;;;;;4.40;3.47;;;20.60;95.60;;;;;;5068539;28;20488;-76
2023/06/23 08:13:18;;;;;;;3.63;3.30;;;20.70;95.20;;;;;;5066700;28;20087;-76
2023/06/23 08:15:44;;;;;;;3.40;3.10;;;20.80;95.00;;;;;;5069230;28;20023;-76
2023/06/23 08:18:10;;;;;;;4.63;2.95;;;21.00;95.20;;;;;;5062493;28;20017;-78
2023/06/23 08:20:35;;;;;;;3.58;3.28;;;21.10;94.60;;;;;;5072629;28;20043;-74
2023/06/23 08:23:01;;;;;;;6.60;4.28;;;21.40;93.90;;;;;;5051182;28;20027;-75
2023/06/23 08:25:27;;;;;;;5.13;4.43;;;21.70;93.20;;;;;;5076185;28;20031;-75
2023/06/23 08:27:53;;;;;;;4.85;4.38;;;21.90;92.30;;;;;;5061852;28;20041;-75
2023/06/23 08:30:26;;;;;;;5.95;4.88;;;22.30;91.50;;;;;;5076269;28;20036;-75
2023/06/23 08:32:53;;;;;;;3.88;3.53;;;22.50;90.30;;;;;;5062032;28;20039;-74
2023/06/23 08:35:19;;;;;;;5.28;4.78;;;22.50;90.30;;;;;;5066504;28;20056;-75
2023/06/23 08:37:44;;;;;;;4.22;3.83;;;22.50;89.10;;;;;;5057712;28;20036;-74
2023/06/23 08:40:10;;;;;;;5.00;4.50;;;22.50;89.00;;;;;;5056674;28;20025;-77
2023/06/23 08:42:37;;;;;;;6.50;5.25;;;22.40;89.10;;;;;;5053092;28;20031;-77
2023/06/23 08:45:04;;;;;;;5.38;4.70;;;22.20;87.60;;;;;;5069888;28;20113;-77
2023/06/23 08:47:31;;;;;;;6.00;4.88;;;21.90;88.60;;;;;;5072753;28;20436;-77
2023/06/23 08:49:57;;;;;;;5.63;5.00;;;21.70;89.90;;;;;;5057135;28;20009;-77
2023/06/23 08:52:24;;;;;;;5.45;4.93;;;21.50;90.00;;;;;;5037959;28;20021;-75
2023/06/23 08:54:50;;;;;;;5.00;4.60;;;21.30;90.20;;;;;;5070824;28;20020;-74
2023/06/23 08:57:17;;;;;;;5.10;4.60;;;21.10;91.00;;;;;;5069130;28;20113;-78
2023/06/23 08:59:43;;;;;;;8.63;6.82;;;20.90;91.00;;;;;;5046170;28;20033;-76
2023/06/23 09:02:09;;;;;;;7.80;6.68;;;20.80;90.70;;;;;;5071249;28;20021;-76
2023/06/23 09:04:35;;;;;;;10.10;5.85;;;21.00;90.50;;;;;;5057480;28;20055;-76
2023/06/23 09:07:07;;;;;;;5.90;5.28;;;;;;;;;;5081039;28;20025;-77
2023/06/23 09:09:32;;;;;;;5.60;4.78;;;22.10;86.50;;;;;;5052734;28;20017;-77
2023/06/23 09:11:59;;;;;;;7.57;6.78;;;22.60;84.70;;;;;;5073556;28;20075;-77
2023/06/23 09:14:33;;;;;;;6.40;5.78;;;22.90;81.90;;;;;;5077169;28;20039;-77
2023/06/23 09:17:01;;;;;;;8.02;6.03;;;22.90;80.80;;;;;;5068789;28;20052;-76
2023/06/23 09:19:27;;;;;;;7.15;6.45;;;22.90;80.30;;;;;;5055290;28;20029;-76
2023/06/23 09:21:55;;;;;;;5.45;4.95;;;23.10;79.10;;;;;;5079440;28;20024;-77
2023/06/23 09:24:21;;;;;;;6.45;5.00;;;23.20;78.70;;;;;;5070263;28;20074;-76
2023/06/23 09:26:50;;;;;;;6.90;6.07;;;23.50;77.70;;;;;;5067482;28;20060;-75
2023/06/23 09:29:22;;;;;;;7.15;6.05;;;23.90;74.50;;;;;;5050868;28;20028;-77
2023/06/23 09:31:50;;;;;;;6.13;5.53;;;24.20;73.30;;;;;;5064621;28;20028;-75
2023/06/23 09:34:24;;;;;;;5.93;5.30;;;24.20;72.40;;;;;;5060473;28;20035;-75
2023/06/23 09:36:52;;;;;;;9.60;5.95;;;24.10;71.70;;;;;;5060821;28;20053;-75
2023/06/23 09:39:19;;;;;;;7.10;6.00;;;24.00;72.10;;;;;;5058082;28;20036;-75
2023/06/23 09:41:55;;;;;;;7.15;6.30;;;24.10;71.80;;;;;;5077614;28;20024;-75
2023/06/23 09:44:21;;;;;;;7.00;5.60;;;24.30;72.00;;;;;;5074871;28;20025;-75
2023/06/23 09:46:58;;;;;;;6.13;5.53;;;24.30;71.00;;;;;;5061519;28;20032;-77
2023/06/23 09:49:24;;;;;;;6.20;5.60;;;24.60;70.70;;;;;;5075175;28;20021;-75
2023/06/23 09:51:50;;;;;;;7.20;6.50;;;25.00;69.00;;;;;;5086392;28;20016;-76
2023/06/23 09:54:33;;;;;;;8.65;6.65;;;25.10;66.80;;;;;;5060583;28;20040;-77
2023/06/23 09:57:10;;;;;;;8.30;7.50;;;25.00;65.20;;;;;;5078722;28;20028;-77
2023/06/23 09:59:40;;;;;;;8.23;5.53;;;24.70;65.30;;;;;;5052120;28;20040;-76
2023/06/23 10:02:23;;;;;;;5.35;4.85;;;24.50;66.90;;;;;;5070544;28;20031;-77
2023/06/23 10:04:50;;;;;;;6.07;5.28;;;24.50;67.70;;;;;;5059231;28;20025;-76
2023/06/23 10:07:23;;;;;;;5.53;4.75;;;24.50;67.30;;;;;;5061885;28;20013;-76
2023/06/23 10:09:51;;;;;;;7.05;5.90;;;24.50;67.40;;;;;;5071952;28;20058;-77
2023/06/23 10:12:22;;;;;;;9.25;8.00;;;24.30;66.90;;;;;;5078871;28;20112;-76
2023/06/23 10:14:51;;;;;;;5.87;5.27;;;24.00;66.70;;;;;;5074993;28;20143;-76
2023/06/23 10:17:18;;;;;;;7.03;6.32;;;23.90;68.00;;;;;;5074641;28;20351;-76
2023/06/23 10:19:52;;;;;;;6.53;5.75;;;23.80;68.60;;;;;;5075762;28;20120;-75
2023/06/23 10:22:20;;;;;;;8.85;6.88;;;23.70;68.50;;;;;;5060043;28;20021;-76
2023/06/23 10:24:50;;;;;;;8.15;6.80;;;23.70;67.40;;;;;;5073787;28;20032;-76
2023/06/23 10:27:22;;;;;;;7.00;6.40;;;23.60;67.40;;;;;;5059709;28;20025;-76
2023/06/23 10:29:52;;;;;;;9.65;7.75;;;;;;;;;;5073555;28;20086;-76
2023/06/23 10:32:22;;;;;;;6.85;5.70;;;23.60;65.30;;;;;;5057194;28;20493;-76
2023/06/23 10:34:49;;;;;;;8.10;6.80;;;23.30;67.30;;;;;;5074681;28;20431;-75
2023/06/23 10:37:18;;;;;;;7.63;6.68;;;23.20;65.70;;;;;;5079133;28;20019;-77
2023/06/23 10:39:49;;;;;;;6.85;6.13;;;23.10;64.40;;;;;;5082465;28;20024;-77
2023/06/23 10:42:16;;;;;;;8.02;5.32;;;;;;;;;;5061481;28;20070;-75
2023/06/23 10:44:43;;;;;;;7.63;5.93;;;23.30;63.90;;;;;;5055568;28;20044;-76
2023/06/23 10:47:09;;;;;;;7.93;5.57;;;23.40;64.10;;;;;;5060668;28;20032;-77
2023/06/23 10:49:36;;;;;;;6.50;5.50;;;23.40;64.20;;;;;;5057036;28;20025;-76
2023/06/23 10:52:03;;;;;;;7.15;6.15;;;23.10;64.60;;;;;;5056084;28;20021;-77
2023/06/23 10:54:30;;;;;;;6.80;6.05;;;22.80;65.60;;;;;;5063265;28;20385;-77
2023/06/23 10:56:56;;;;;;;6.70;5.85;;;22.60;66.60;;;;;;5059315;28;20025;-77
2023/06/23 10:59:24;;;;;;;7.70;4.82;;;22.40;67.40;;;;;;5073708;28;20032;-77
2023/06/23 11:02:07;;;;;;;6.85;6.00;;;22.30;68.10;;;;;;5080488;28;20020;-78
2023/06/23 11:04:34;;;;;;;8.85;7.22;;;22.30;68.30;;;;;;5080700;28;20059;-78
2023/06/23 11:07:14;;;;;;;8.25;6.55;;;22.20;68.30;;;;;;5085739;28;20040;-77
2023/06/23 11:09:58;;;;;;;7.05;6.30;;;22.10;68.90;;;;;;5083542;28;20105;-78
2023/06/23 11:12:44;;;;;;;9.13;7.47;;;21.90;69.60;;;;;;5078473;28;20021;-77
2023/06/23 11:15:20;;;;;;;8.07;6.20;;;21.90;70.10;;;;;;5064635;28;20032;-77
2023/06/23 11:17:50;;;;;;;5.45;4.90;;;22.00;70.50;;;;;;5057461;28;20021;-77
2023/06/23 11:20:25;;;;;;;5.05;4.55;;;22.20;70.80;;;;;;5057235;28;20037;-78
2023/06/23 11:23:13;;;;;;;7.97;7.07;;;22.70;70.30;;;;;;5025016;28;20027;-77
2023/06/23 11:25:46;;;;;;;7.78;6.78;;;23.50;66.90;;;;;;5036778;28;20450;-78
2023/06/23 11:28:29;;;;;;;10.85;8.70;;;23.80;65.70;;;;;;5066393;28;20084;-77
2023/06/23 11:31:20;;;;;;;7.43;6.72;;;23.90;64.40;;;;;;5072298;28;20079;-76
2023/06/23 11:34:07;;;;;;;7.70;6.35;;;;;;;;;;5058387;28;20090;-77
2023/06/23 11:36:32;;;;;;;7.25;6.53;;;24.70;62.80;;;;;;5077039;28;20031;-76
2023/06/23 11:39:00;;;;;;;8.23;6.72;;;25.00;62.60;;;;;;5066931;28;20029;-77
2023/06/23 11:41:30;;;;;;;6.60;5.90;;;25.20;62.00;;;;;;5058022;28;20194;-76
2023/06/23 11:44:05;;;;;;;6.43;5.40;;;25.30;61.60;;;;;;5053811;28;20029;-76
2023/06/23 11:46:31;;;;;;;5.28;4.78;;;25.20;61.50;;;;;;5058136;28;20021;-78
2023/06/23 11:48:57;;;;;;;7.38;6.43;;;25.00;61.70;;;;;;5058598;28;20025;-76
2023/06/23 11:51:23;;;;;;;6.07;5.47;;;24.70;60.70;;;;;;5056793;28;20083;-75
2023/06/23 11:53:53;;;;;;;7.60;6.38;;;24.20;61.30;;;;;;5059307;28;20027;-77
2023/06/23 11:56:19;;;;;;;7.43;6.65;;;23.80;62.40;;;;;;5058263;28;20276;-77
2023/06/23 11:58:55;;;;;;;6.65;5.80;;;23.60;63.50;;;;;;5061133;28;20103;-76
2023/06/23 12:01:22;;;;;;;9.02;5.28;;;;;;;;;;5058448;28;20029;-77
2023/06/23 12:03:49;;;;;;;7.18;4.95;;;23.50;59.70;;;;;;5066998;28;20033;-76
2023/06/23 12:06:17;;;;;;;5.97;4.95;;;23.90;58.30;;;;;;5057047;28;20020;-78
2023/06/23 12:08:49;;;;;;;4.93;4.07;;;24.30;57.50;;;;;;5057893;28;20025;-77
2023/06/23 12:11:17;;;;;;;4.93;4.43;;;;;;;;;;5060594;28;20076;-77
2023/06/23 12:13:45;;;;;;;4.78;4.07;;;24.90;53.70;;;;;;5061710;28;20071;-78
2023/06/23 12:16:11;;;;;;;4.63;3.95;;;25.10;54.30;;;;;;5063146;28;20063;-77
2023/06/23 12:18:44;;;;;;;3.88;3.58;;;25.30;54.40;;;;;;5067430;28;20024;-77
2023/06/23 12:21:10;;;;;;;3.92;3.63;;;25.50;54.00;;;;;;5068260;28;20035;-77
2023/06/23 12:23:37;;;;;;;3.88;3.58;;;25.70;53.40;;;;;;5075940;28;20053;-76
2023/06/23 12:26:05;;;;;;;6.75;4.00;;;25.90;53.10;;;;;;5073062;28;20024;-76
2023/06/23 12:28:31;;;;;;;4.47;4.07;;;26.10;52.50;;;;;;5066162;28;20047;-76
2023/06/23 12:30:57;;;;;;;4.30;4.00;;;26.30;51.70;;;;;;5053933;28;20418;-75
2023/06/23 12:33:23;;;;;;;4.50;4.07;;;26.60;51.60;;;;;;5053579;28;20029;-76
2023/06/23 12:36:02;;;;;;;4.70;4.30;;;26.80;49.50;;;;;;5053374;28;20032;-76
2023/06/23 12:38:30;;;;;;;4.20;3.78;;;26.80;49.40;;;;;;5053987;28;20150;-77
2023/06/23 12:40:56;;;;;;;4.38;3.85;;;;;;;;;;5073301;28;20035;-77
2023/06/23 12:43:22;;;;;;;4.72;3.90;;;26.70;49.30;;;;;;5061393;28;20462;-77
2023/06/23 12:45:54;;;;;;;4.32;3.92;;;26.80;49.80;;;;;;5055136;28;20131;-77
2023/06/23 12:48:23;;;;;;;4.53;4.03;;;26.90;48.70;;;;;;5037085;28;20092;-77
2023/06/23 12:50:54;;;;;;;6.15;3.58;;;;;;;;;;5036812;28;20033;-76
2023/06/23 12:53:20;;;;;;;5.82;3.92;;;26.90;46.80;;;;;;5052097;28;20075;-77
2023/06/23 12:55:46;;;;;;;6.03;4.20;;;26.70;48.70;;;;;;5051714;28;20367;-76
2023/06/23 12:58:11;;;;;;;3.83;3.53;;;26.40;48.80;;;;;;5057117;28;20111;-76
2023/06/23 13:00:37;;;;;;;4.20;3.60;;;26.50;49.10;;;;;;5055401;28;20029;-77